sensor_id;sensor_type;location;lat;lon;timestamp;pressure;altitude;pressure_sealevel;temperature;humidity
29839;BME280;18669;53.356;-1.464;2023-06-05T00:00:53;101705.28;;;13.82;100.00
29839;BME280;18669;53.356;-1.464;2023-06-05T00:03:38;101703.63;;;13.76;100.00
29839;BME280;18669;53.356;-1.464;2023-06-05T00:06:23;101711.53;;;13.78;100.00
29839;BME280;18669;53.356;-1.464;2023-06-05T00:09:08;101715.03;;;13.78;100.00
29839;BME280;18669;53.356;-1.464;2023-06-05T00:11:53;101715.13;;;13.73;100.00
29839;BME280;18669;53.356;-1.464;2023-06-05T00:14:38;101708.94;;;13.75;100.00
29839;BME280;18669;53.356;-1.464;2023-06-05T00:17:23;101710.63;;;13.79;100.00
29839;BME280;18669;53.356;-1.464;2023-06-05T00:20:09;101706.31;;;13.73;100.00
29839;BME280;18669;53.356;-1.464;2023-06-05T00:22:54;101693.13;;;13.71;100.00
29839;BME280;18669;53.356;-1.464;2023-06-05T00:25:39;101700.06;;;13.79;100.00
29839;BME280;18669;53.356;-1.464;2023-06-05T00:28:24;101705.25;;;13.83;100.00
29839;BME280;18669;53.356;-1.464;2023-06-05T00:31:10;101708.03;;;13.77;100.00
29839;BME280;18669;53.356;-1.464;2023-06-05T00:33:57;101705.34;;;13.79;100.00
29839;BME280;18669;53.356;-1.464;2023-06-05T00:36:42;101713.28;;;13.79;100.00
29839;BME280;18669;53.356;-1.464;2023-06-05T00:39:26;101705.44;;;13.74;100.00
29839;BME280;18669;53.356;-1.464;2023-06-05T00:42:11;101698.50;;;13.65;100.00
29839;BME280;18669;53.356;-1.464;2023-06-05T00:44:56;101702.88;;;13.66;100.00
29839;BME280;18669;53.356;-1.464;2023-06-05T00:47:41;101709.13;;;13.64;100.00
29839;BME280;18669;53.356;-1.464;2023-06-05T00:50:26;101708.06;;;13.74;100.00
29839;BME280;18669;53.356;-1.464;2023-06-05T00:53:12;101706.28;;;13.76;100.00
29839;BME280;18669;53.356;-1.464;2023-06-05T00:55:57;101698.34;;;13.76;100.00
29839;BME280;18669;53.356;-1.464;2023-06-05T00:58:42;101693.16;;;13.70;100.00
29839;BME280;18669;53.356;-1.464;2023-06-05T01:01:27;101697.44;;;13.76;100.00
29839;BME280;18669;53.356;-1.464;2023-06-05T01:04:13;101691.22;;;13.80;100.00
29839;BME280;18669;53.356;-1.464;2023-06-05T01:06:59;101690.31;;;13.79;100.00
29839;BME280;18669;53.356;-1.464;2023-06-05T01:09:45;101692.25;;;13.71;100.00
29839;BME280;18669;53.356;-1.464;2023-06-05T01:15:40;101692.25;;;13.69;100.00
29839;BME280;18669;53.356;-1.464;2023-06-05T01:18:25;101677.47;;;13.57;100.00
29839;BME280;18669;53.356;-1.464;2023-06-05T01:21:12;101682.66;;;13.64;100.00
29839;BME280;18669;53.356;-1.464;2023-06-05T01:24:00;101686.25;;;13.60;100.00
29839;BME280;18669;53.356;-1.464;2023-06-05T01:30:36;101673.66;;;13.76;100.00
29839;BME280;18669;53.356;-1.464;2023-06-05T01:33:01;101672.00;;;13.70;100.00
29839;BME280;18669;53.356;-1.464;2023-06-05T01:35:47;101673.00;;;13.61;100.00
29839;BME280;18669;53.356;-1.464;2023-06-05T01:38:36;101675.63;;;13.61;100.00
29839;BME280;18669;53.356;-1.464;2023-06-05T01:41:23;101678.31;;;13.60;100.00
29839;BME280;18669;53.356;-1.464;2023-06-05T01:44:11;101682.81;;;13.56;100.00
29839;BME280;18669;53.356;-1.464;2023-06-05T01:46:59;101682.84;;;13.51;100.00
29839;BME280;18669;53.356;-1.464;2023-06-05T01:49:44;101683.75;;;13.50;100.00
29839;BME280;18669;53.356;-1.464;2023-06-05T01:52:29;101672.47;;;13.37;100.00
29839;BME280;18669;53.356;-1.464;2023-06-05T01:55:20;101678.63;;;13.41;100.00
29839;BME280;18669;53.356;-1.464;2023-06-05T01:58:08;101681.28;;;13.36;100.00
29839;BME280;18669;53.356;-1.464;2023-06-05T02:00:53;101676.84;;;13.41;100.00
29839;BME280;18669;53.356;-1.464;2023-06-05T02:03:38;101676.84;;;13.41;100.00
29839;BME280;18669;53.356;-1.464;2023-06-05T02:06:22;101678.63;;;13.41;100.00
29839;BME280;18669;53.356;-1.464;2023-06-05T02:09:10;101666.31;;;13.37;100.00
29839;BME280;18669;53.356;-1.464;2023-06-05T02:11:57;101670.69;;;13.41;100.00
29839;BME280;18669;53.356;-1.464;2023-06-05T02:14:42;101673.28;;;13.44;100.00
29839;BME280;18669;53.356;-1.464;2023-06-05T02:17:29;101671.50;;;13.45;100.00
29839;BME280;18669;53.356;-1.464;2023-06-05T02:20:15;101662.56;;;13.53;100.00
29839;BME280;18669;53.356;-1.464;2023-06-05T02:23:00;101663.66;;;13.38;100.00
29839;BME280;18669;53.356;-1.464;2023-06-05T02:25:45;101664.59;;;13.34;100.00
29839;BME280;18669;53.356;-1.464;2023-06-05T02:28:31;101665.59;;;13.25;100.00
29839;BME280;18669;53.356;-1.464;2023-06-05T02:31:15;101667.38;;;13.25;100.00
29839;BME280;18669;53.356;-1.464;2023-06-05T02:34:00;101666.53;;;13.21;100.00
29839;BME280;18669;53.356;-1.464;2023-06-05T02:36:45;101657.81;;;13.18;100.00
29839;BME280;18669;53.356;-1.464;2023-06-05T02:39:30;101664.78;;;13.22;100.00
29839;BME280;18669;53.356;-1.464;2023-06-05T02:42:17;101661.25;;;13.21;100.00
29839;BME280;18669;53.356;-1.464;2023-06-05T02:45:03;101662.97;;;13.25;100.00
29839;BME280;18669;53.356;-1.464;2023-06-05T02:47:48;101654.28;;;13.17;100.00
29839;BME280;18669;53.356;-1.464;2023-06-05T02:50:34;101650.97;;;13.03;100.00
29839;BME280;18669;53.356;-1.464;2023-06-05T02:53:18;101663.38;;;12.97;100.00
29839;BME280;18669;53.356;-1.464;2023-06-05T02:56:05;101658.09;;;12.97;100.00
29839;BME280;18669;53.356;-1.464;2023-06-05T02:58:50;101654.53;;;13.00;100.00
29839;BME280;18669;53.356;-1.464;2023-06-05T03:01:35;101656.19;;;13.07;100.00
29839;BME280;18669;53.356;-1.464;2023-06-05T03:04:20;101654.34;;;13.12;100.00
29839;BME280;18669;53.356;-1.464;2023-06-05T03:07:08;101649.88;;;13.16;100.00
29839;BME280;18669;53.356;-1.464;2023-06-05T03:09:54;101648.09;;;13.20;100.00
29839;BME280;18669;53.356;-1.464;2023-06-05T03:12:39;101643.72;;;13.17;100.00
29839;BME280;18669;53.356;-1.464;2023-06-05T03:15:24;101645.50;;;13.15;100.00
29839;BME280;18669;53.356;-1.464;2023-06-05T03:18:09;101646.50;;;13.06;100.00
29839;BME280;18669;53.356;-1.464;2023-06-05T03:20:54;101643.91;;;13.05;100.00
29839;BME280;18669;53.356;-1.464;2023-06-05T03:23:39;101654.56;;;12.98;100.00
29839;BME280;18669;53.356;-1.464;2023-06-05T03:26:24;101653.63;;;13.01;100.00
29839;BME280;18669;53.356;-1.464;2023-06-05T03:29:10;101648.44;;;12.95;100.00
29839;BME280;18669;53.356;-1.464;2023-06-05T03:31:55;101658.09;;;12.97;100.00
29839;BME280;18669;53.356;-1.464;2023-06-05T03:34:40;101651.88;;;13.00;100.00
29839;BME280;18669;53.356;-1.464;2023-06-05T03:37:27;101643.97;;;13.00;100.00
29839;BME280;18669;53.356;-1.464;2023-06-05T03:40:12;101649.13;;;13.08;100.00
29839;BME280;18669;53.356;-1.464;2023-06-05T03:42:56;101652.69;;;13.05;100.00
29839;BME280;18669;53.356;-1.464;2023-06-05T03:45:41;101650.09;;;13.04;100.00
29839;BME280;18669;53.356;-1.464;2023-06-05T03:48:26;101657.03;;;13.08;100.00
29839;BME280;18669;53.356;-1.464;2023-06-05T03:51:11;101654.44;;;13.06;100.00
29839;BME280;18669;53.356;-1.464;2023-06-05T03:53:57;101659.63;;;13.12;100.00
29839;BME280;18669;53.356;-1.464;2023-06-05T03:56:42;101653.53;;;13.07;100.00
29839;BME280;18669;53.356;-1.464;2023-06-05T03:59:34;101646.56;;;13.03;100.00
29839;BME280;18669;53.356;-1.464;2023-06-05T04:02:19;101645.56;;;13.09;100.00
29839;BME280;18669;53.356;-1.464;2023-06-05T04:05:04;101648.22;;;13.10;100.00
29839;BME280;18669;53.356;-1.464;2023-06-05T04:07:49;101639.47;;;13.05;100.00
29839;BME280;18669;53.356;-1.464;2023-06-05T04:10:35;101643.94;;;13.02;100.00
29839;BME280;18669;53.356;-1.464;2023-06-05T04:13:20;101651.03;;;13.00;100.00
29839;BME280;18669;53.356;-1.464;2023-06-05T04:16:06;101650.13;;;13.01;100.00
29839;BME280;18669;53.356;-1.464;2023-06-05T04:18:51;101654.56;;;12.98;100.00
29839;BME280;18669;53.356;-1.464;2023-06-05T04:21:36;101653.63;;;13.01;100.00
29839;BME280;18669;53.356;-1.464;2023-06-05T04:24:22;101652.78;;;13.01;100.00
29839;BME280;18669;53.356;-1.464;2023-06-05T04:27:09;101651.06;;;12.96;100.00
29839;BME280;18669;53.356;-1.464;2023-06-05T04:29:54;101663.38;;;12.97;100.00
29839;BME280;18669;53.356;-1.464;2023-06-05T04:32:40;101653.75;;;12.93;100.00
29839;BME280;18669;53.356;-1.464;2023-06-05T04:35:26;101656.50;;;12.84;100.00
29839;BME280;18669;53.356;-1.464;2023-06-05T04:38:11;101660.03;;;12.85;100.00
29839;BME280;18669;53.356;-1.464;2023-06-05T04:40:55;101644.97;;;12.90;100.00
29839;BME280;18669;53.356;-1.464;2023-06-05T04:43:40;101648.56;;;12.86;100.00
29839;BME280;18669;53.356;-1.464;2023-06-05T04:46:26;101654.84;;;12.77;100.00
29839;BME280;18669;53.356;-1.464;2023-06-05T04:49:14;101649.34;;;12.91;100.00
29839;BME280;18669;53.356;-1.464;2023-06-05T04:51:59;101652.03;;;12.89;100.00
29839;BME280;18669;53.356;-1.464;2023-06-05T04:54:44;101648.47;;;12.92;100.00
29839;BME280;18669;53.356;-1.464;2023-06-05T04:57:29;101650.22;;;12.94;100.00
29839;BME280;18669;53.356;-1.464;2023-06-05T05:00:15;101651.06;;;12.96;100.00
29839;BME280;18669;53.356;-1.464;2023-06-05T05:02:59;101662.47;;;12.98;100.00
29839;BME280;18669;53.356;-1.464;2023-06-05T05:05:44;101667.59;;;13.08;100.00
29839;BME280;18669;53.356;-1.464;2023-06-05T05:08:29;101651.06;;;12.96;100.00
29839;BME280;18669;53.356;-1.464;2023-06-05T05:11:16;101652.00;;;12.92;100.00
29839;BME280;18669;53.356;-1.464;2023-06-05T05:14:01;101652.84;;;12.94;100.00
29839;BME280;18669;53.356;-1.464;2023-06-05T05:16:46;101653.84;;;12.86;100.00
29839;BME280;18669;53.356;-1.464;2023-06-05T05:19:32;101645.03;;;12.87;100.00
29839;BME280;18669;53.356;-1.464;2023-06-05T05:22:17;101663.53;;;12.87;100.00
29839;BME280;18669;53.356;-1.464;2023-06-05T05:25:02;101651.28;;;12.78;100.00
29839;BME280;18669;53.356;-1.464;2023-06-05T05:27:46;101645.03;;;12.85;100.00
29839;BME280;18669;53.356;-1.464;2023-06-05T05:30:31;101652.00;;;12.92;100.00
29839;BME280;18669;53.356;-1.464;2023-06-05T05:33:17;101651.19;;;12.89;100.00
29839;BME280;18669;53.356;-1.464;2023-06-05T05:36:03;101649.41;;;12.89;100.00
29839;BME280;18669;53.356;-1.464;2023-06-05T05:38:48;101653.84;;;12.86;100.00
29839;BME280;18669;53.356;-1.464;2023-06-05T05:41:33;101644.97;;;12.90;100.00
29839;BME280;18669;53.356;-1.464;2023-06-05T05:44:18;101652.91;;;12.90;100.00
29839;BME280;18669;53.356;-1.464;2023-06-05T05:47:04;101654.56;;;12.97;100.00
29839;BME280;18669;53.356;-1.464;2023-06-05T05:49:49;101648.34;;;13.03;100.00
29839;BME280;18669;53.356;-1.464;2023-06-05T05:52:34;101647.56;;;12.94;100.00
29839;BME280;18669;53.356;-1.464;2023-06-05T05:55:19;101649.31;;;12.94;100.00
29839;BME280;18669;53.356;-1.464;2023-06-05T05:58:04;101649.34;;;12.91;100.00
29839;BME280;18669;53.356;-1.464;2023-06-05T06:00:49;101646.59;;;13.02;100.00
29839;BME280;18669;53.356;-1.464;2023-06-05T06:03:34;101646.56;;;13.05;100.00
29839;BME280;18669;53.356;-1.464;2023-06-05T06:06:22;101656.97;;;13.14;100.00
29839;BME280;18669;53.356;-1.464;2023-06-05T06:09:07;101657.94;;;13.07;100.00
29839;BME280;18669;53.356;-1.464;2023-06-05T06:11:54;101653.63;;;13.03;100.00
29839;BME280;18669;53.356;-1.464;2023-06-05T06:14:40;101654.84;;;12.77;100.00
29839;BME280;18669;53.356;-1.464;2023-06-05T06:17:24;101663.75;;;12.68;100.00
29839;BME280;18669;53.356;-1.464;2023-06-05T06:20:10;101661.91;;;12.76;100.00
29839;BME280;18669;53.356;-1.464;2023-06-05T06:22:57;101655.66;;;12.82;100.00
29839;BME280;18669;53.356;-1.464;2023-06-05T06:25:42;101647.66;;;12.88;100.00
29839;BME280;18669;53.356;-1.464;2023-06-05T06:28:26;101653.63;;;13.01;100.00
29839;BME280;18669;53.356;-1.464;2023-06-05T06:31:11;101648.19;;;13.12;100.00
29839;BME280;18669;53.356;-1.464;2023-06-05T06:33:56;101647.25;;;13.16;100.00
29839;BME280;18669;53.356;-1.464;2023-06-05T06:36:42;101652.44;;;13.22;100.00
29839;BME280;18669;53.356;-1.464;2023-06-05T06:39:28;101649.72;;;13.27;100.00
29839;BME280;18669;53.356;-1.464;2023-06-05T06:42:13;101658.63;;;13.23;100.00
29839;BME280;18669;53.356;-1.464;2023-06-05T06:44:58;101652.44;;;13.24;100.00
29839;BME280;18669;53.356;-1.464;2023-06-05T06:47:44;101658.53;;;13.26;100.00
29839;BME280;18669;53.356;-1.464;2023-06-05T06:50:28;101663.78;;;13.29;100.00
29839;BME280;18669;53.356;-1.464;2023-06-05T06:53:13;101661.38;;;13.13;100.00
29839;BME280;18669;53.356;-1.464;2023-06-05T06:55:58;101658.63;;;13.23;100.00
29839;BME280;18669;53.356;-1.464;2023-06-05T06:58:46;101672.44;;;13.40;100.00
29839;BME280;18669;53.356;-1.464;2023-06-05T07:01:31;101661.03;;;13.37;100.00
29839;BME280;18669;53.356;-1.464;2023-06-05T07:04:16;101654.88;;;13.36;100.00
29839;BME280;18669;53.356;-1.464;2023-06-05T07:07:04;101652.25;;;13.35;100.00
29839;BME280;18669;53.356;-1.464;2023-06-05T07:09:50;101649.28;;;13.56;100.00
29839;BME280;18669;53.356;-1.464;2023-06-05T07:12:38;101655.34;;;13.63;100.00
29839;BME280;18669;53.356;-1.464;2023-06-05T07:15:23;101662.31;;;13.69;100.00
29839;BME280;18669;53.356;-1.464;2023-06-05T07:18:07;101665.97;;;13.62;100.00
29839;BME280;18669;53.356;-1.464;2023-06-05T07:20:52;101659.47;;;13.78;100.00
29839;BME280;18669;53.356;-1.464;2023-06-05T07:23:37;101676.94;;;13.88;100.00
29839;BME280;18669;53.356;-1.464;2023-06-05T07:26:23;101675.06;;;13.97;100.00
29839;BME280;18669;53.356;-1.464;2023-06-05T07:29:08;101682.59;;;13.68;100.00
29839;BME280;18669;53.356;-1.464;2023-06-05T07:31:55;101679.75;;;13.81;100.00
29839;BME280;18669;53.356;-1.464;2023-06-05T07:34:40;101675.16;;;13.91;100.00
29839;BME280;18669;53.356;-1.464;2023-06-05T07:37:25;101672.34;;;13.98;100.00
29839;BME280;18669;53.356;-1.464;2023-06-05T07:40:10;101674.16;;;13.96;96.71
29839;BME280;18669;53.356;-1.464;2023-06-05T07:42:55;101678.31;;;14.11;97.98
29839;BME280;18669;53.356;-1.464;2023-06-05T07:45:40;101678.19;;;14.17;94.47
29839;BME280;18669;53.356;-1.464;2023-06-05T07:48:25;101676.06;;;14.37;89.69
29839;BME280;18669;53.356;-1.464;2023-06-05T07:51:10;101671.28;;;14.56;88.21
29839;BME280;18669;53.356;-1.464;2023-06-05T07:53:55;101676.09;;;14.81;88.03
29839;BME280;18669;53.356;-1.464;2023-06-05T07:56:40;101676.84;;;14.87;85.34
29839;BME280;18669;53.356;-1.464;2023-06-05T07:59:25;101669.44;;;15.02;84.34
29839;BME280;18669;53.356;-1.464;2023-06-05T08:02:12;101667.31;;;15.56;79.34
29839;BME280;18669;53.356;-1.464;2023-06-05T08:04:57;101677.44;;;16.42;74.17
29839;BME280;18669;53.356;-1.464;2023-06-05T08:07:42;101665.94;;;17.03;68.68
29839;BME280;18669;53.356;-1.464;2023-06-05T08:10:26;101669.66;;;16.97;63.32
29839;BME280;18669;53.356;-1.464;2023-06-05T08:13:11;101674.31;;;16.59;63.69
29839;BME280;18669;53.356;-1.464;2023-06-05T08:15:57;101667.22;;;15.95;65.66
29839;BME280;18669;53.356;-1.464;2023-06-05T08:18:43;101678.78;;;15.92;67.18
29839;BME280;18669;53.356;-1.464;2023-06-05T08:21:28;101668.97;;;15.60;69.59
29839;BME280;18669;53.356;-1.464;2023-06-05T08:24:12;101663.47;;;15.68;70.55
29839;BME280;18669;53.356;-1.464;2023-06-05T08:26:57;101672.03;;;15.79;69.37
29839;BME280;18669;53.356;-1.464;2023-06-05T08:29:43;101665.75;;;15.81;68.82
29839;BME280;18669;53.356;-1.464;2023-06-05T08:32:28;101668.13;;;16.27;68.55
29839;BME280;18669;53.356;-1.464;2023-06-05T08:35:14;101662.47;;;17.56;70.40
29839;BME280;18669;53.356;-1.464;2023-06-05T08:37:59;101648.19;;;18.60;60.10
29839;BME280;18669;53.356;-1.464;2023-06-05T08:40:45;101652.41;;;19.34;54.58
29839;BME280;18669;53.356;-1.464;2023-06-05T08:43:38;101644.69;;;20.12;52.44
29839;BME280;18669;53.356;-1.464;2023-06-05T08:46:29;101651.97;;;20.87;51.13
29839;BME280;18669;53.356;-1.464;2023-06-05T08:49:17;101650.72;;;20.77;48.12
29839;BME280;18669;53.356;-1.464;2023-06-05T08:52:06;101651.50;;;20.79;48.61
29839;BME280;18669;53.356;-1.464;2023-06-05T08:54:52;101649.22;;;21.08;48.29
29839;BME280;18669;53.356;-1.464;2023-06-05T08:57:41;101650.81;;;20.74;48.19
29839;BME280;18669;53.356;-1.464;2023-06-05T09:00:26;101647.81;;;20.81;47.84
29839;BME280;18669;53.356;-1.464;2023-06-05T09:03:11;101645.78;;;20.86;46.74
29839;BME280;18669;53.356;-1.464;2023-06-05T09:06:00;101635.56;;;21.14;47.16
29839;BME280;18669;53.356;-1.464;2023-06-05T09:08:47;101650.44;;;20.62;47.94
29839;BME280;18669;53.356;-1.464;2023-06-05T09:11:32;101653.25;;;20.80;46.12
29839;BME280;18669;53.356;-1.464;2023-06-05T09:14:25;101651.22;;;20.45;47.88
29839;BME280;18669;53.356;-1.464;2023-06-05T09:17:14;101644.81;;;19.89;48.81
29839;BME280;18669;53.356;-1.464;2023-06-05T09:19:59;101650.50;;;19.38;50.40
29839;BME280;18669;53.356;-1.464;2023-06-05T09:22:45;101649.41;;;18.52;52.07
29839;BME280;18669;53.356;-1.464;2023-06-05T09:25:51;101654.06;;;18.21;55.40
29839;BME280;18669;53.356;-1.464;2023-06-05T09:28:35;101645.25;;;18.43;54.10
29839;BME280;18669;53.356;-1.464;2023-06-05T09:31:20;101645.41;;;19.10;53.67
29839;BME280;18669;53.356;-1.464;2023-06-05T09:34:07;101644.34;;;19.36;52.75
29839;BME280;18669;53.356;-1.464;2023-06-05T09:36:51;101642.41;;;20.03;49.72
29839;BME280;18669;53.356;-1.464;2023-06-05T09:39:39;101645.97;;;21.38;46.96
29839;BME280;18669;53.356;-1.464;2023-06-05T09:42:34;101653.06;;;20.64;47.64
29839;BME280;18669;53.356;-1.464;2023-06-05T09:45:19;101641.75;;;19.77;48.46
29839;BME280;18669;53.356;-1.464;2023-06-05T09:48:14;101650.84;;;19.51;50.14
29839;BME280;18669;53.356;-1.464;2023-06-05T09:51:13;101643.91;;;19.25;50.70
29839;BME280;18669;53.356;-1.464;2023-06-05T09:53:58;101645.34;;;19.11;51.72
29839;BME280;18669;53.356;-1.464;2023-06-05T09:56:47;101638.59;;;20.68;49.59
29839;BME280;18669;53.356;-1.464;2023-06-05T09:59:44;101645.09;;;21.20;46.63
29839;BME280;18669;53.356;-1.464;2023-06-05T10:02:33;101630.59;;;20.87;47.07
29839;BME280;18669;53.356;-1.464;2023-06-05T10:05:19;101642.78;;;21.12;46.79
29839;BME280;18669;53.356;-1.464;2023-06-05T10:08:06;101629.69;;;21.95;46.20
29839;BME280;18669;53.356;-1.464;2023-06-05T10:10:51;101631.44;;;22.79;43.95
29839;BME280;18669;53.356;-1.464;2023-06-05T10:13:36;101620.44;;;23.77;40.82
29839;BME280;18669;53.356;-1.464;2023-06-05T10:16:21;101625.38;;;24.00;40.78
29839;BME280;18669;53.356;-1.464;2023-06-05T10:19:06;101617.81;;;25.59;40.39
29839;BME280;18669;53.356;-1.464;2023-06-05T10:21:52;101618.69;;;26.38;38.00
29839;BME280;18669;53.356;-1.464;2023-06-05T10:24:46;101638.13;;;27.29;35.51
29839;BME280;18669;53.356;-1.464;2023-06-05T10:40:15;101643.13;;;27.46;33.66
29839;BME280;18669;53.356;-1.464;2023-06-05T10:44:03;101636.78;;;26.99;34.79
29839;BME280;18669;53.356;-1.464;2023-06-05T10:46:36;101637.97;;;27.19;35.27
29839;BME280;18669;53.356;-1.464;2023-06-05T10:49:21;101645.78;;;26.73;35.79
29839;BME280;18669;53.356;-1.464;2023-06-05T10:52:35;101640.38;;;25.71;36.27
29839;BME280;18669;53.356;-1.464;2023-06-05T10:55:21;101654.66;;;24.33;37.91
29839;BME280;18669;53.356;-1.464;2023-06-05T10:58:11;101650.97;;;23.14;40.44
29839;BME280;18669;53.356;-1.464;2023-06-05T11:03:59;101650.59;;;22.22;42.22
29839;BME280;18669;53.356;-1.464;2023-06-05T11:07:16;101644.81;;;22.30;42.51
29839;BME280;18669;53.356;-1.464;2023-06-05T11:15:38;101643.31;;;21.90;44.71
29839;BME280;18669;53.356;-1.464;2023-06-05T11:18:32;101645.03;;;22.09;45.14
29839;BME280;18669;53.356;-1.464;2023-06-05T11:21:17;101634.72;;;22.53;42.70
29839;BME280;18669;53.356;-1.464;2023-06-05T11:24:17;101625.47;;;24.27;40.07
29839;BME280;18669;53.356;-1.464;2023-06-05T11:27:05;101621.56;;;25.57;38.93
29839;BME280;18669;53.356;-1.464;2023-06-05T11:29:51;101635.19;;;26.33;36.05
29839;BME280;18669;53.356;-1.464;2023-06-05T11:32:37;101620.06;;;26.43;36.11
29839;BME280;18669;53.356;-1.464;2023-06-05T11:35:22;101635.19;;;26.07;36.90
29839;BME280;18669;53.356;-1.464;2023-06-05T11:38:10;101635.38;;;25.65;36.40
29839;BME280;18669;53.356;-1.464;2023-06-05T11:40:56;101634.41;;;26.57;35.79
29839;BME280;18669;53.356;-1.464;2023-06-05T11:43:41;101629.59;;;27.71;34.10
29839;BME280;18669;53.356;-1.464;2023-06-05T11:46:38;101637.16;;;26.68;34.98
29839;BME280;18669;53.356;-1.464;2023-06-05T11:49:25;101626.47;;;27.28;34.07
29839;BME280;18669;53.356;-1.464;2023-06-05T11:52:20;101622.75;;;28.46;33.26
29839;BME280;18669;53.356;-1.464;2023-06-05T11:55:19;101616.59;;;27.98;33.36
29839;BME280;18669;53.356;-1.464;2023-06-05T11:58:11;101612.47;;;27.23;33.65
29839;BME280;18669;53.356;-1.464;2023-06-05T12:04:07;101621.41;;;26.12;35.43
29839;BME280;18669;53.356;-1.464;2023-06-05T12:06:58;101619.03;;;26.20;36.27
29839;BME280;18669;53.356;-1.464;2023-06-05T12:09:51;101623.03;;;25.35;36.95
29839;BME280;18669;53.356;-1.464;2023-06-05T12:12:53;101616.66;;;26.28;36.29
29839;BME280;18669;53.356;-1.464;2023-06-05T12:15:38;101610.72;;;26.23;35.35
29839;BME280;18669;53.356;-1.464;2023-06-05T12:18:32;101599.06;;;26.23;35.85
29839;BME280;18669;53.356;-1.464;2023-06-05T12:21:25;101594.69;;;26.59;34.48
29839;BME280;18669;53.356;-1.464;2023-06-05T12:24:10;101604.13;;;26.01;35.59
29839;BME280;18669;53.356;-1.464;2023-06-05T12:27:01;101605.88;;;25.76;37.03
29839;BME280;18669;53.356;-1.464;2023-06-05T12:29:53;101601.38;;;25.09;36.82
29839;BME280;18669;53.356;-1.464;2023-06-05T12:32:38;101605.50;;;25.15;38.74
29839;BME280;18669;53.356;-1.464;2023-06-05T12:35:24;101601.75;;;24.90;37.63
29839;BME280;18669;53.356;-1.464;2023-06-05T12:38:09;101605.72;;;24.70;38.05
29839;BME280;18669;53.356;-1.464;2023-06-05T12:40:55;101604.03;;;24.40;39.18
29839;BME280;18669;53.356;-1.464;2023-06-05T12:43:42;101596.06;;;24.38;38.98
29839;BME280;18669;53.356;-1.464;2023-06-05T12:46:27;101604.03;;;23.96;39.40
29839;BME280;18669;53.356;-1.464;2023-06-05T12:49:12;101599.56;;;24.82;39.05
29839;BME280;18669;53.356;-1.464;2023-06-05T12:51:57;101594.66;;;24.18;38.98
29839;BME280;18669;53.356;-1.464;2023-06-05T12:54:42;101594.47;;;23.62;40.44
29839;BME280;18669;53.356;-1.464;2023-06-05T12:57:27;101585.94;;;24.15;39.62
29839;BME280;18669;53.356;-1.464;2023-06-05T13:00:13;101589.41;;;23.72;39.42
29839;BME280;18669;53.356;-1.464;2023-06-05T13:02:57;101591.63;;;23.34;40.86
29839;BME280;18669;53.356;-1.464;2023-06-05T13:05:42;101592.38;;;23.06;42.53
29839;BME280;18669;53.356;-1.464;2023-06-05T13:08:27;101588.91;;;23.04;40.92
29839;BME280;18669;53.356;-1.464;2023-06-05T13:11:13;101589.72;;;23.36;41.64
29839;BME280;18669;53.356;-1.464;2023-06-05T13:13:57;101590.47;;;23.24;41.74
29839;BME280;18669;53.356;-1.464;2023-06-05T13:16:42;101586.25;;;22.88;41.90
29839;BME280;18669;53.356;-1.464;2023-06-05T13:19:27;101579.16;;;23.78;41.47
29839;BME280;18669;53.356;-1.464;2023-06-05T13:22:12;101574.91;;;26.21;36.59
29839;BME280;18669;53.356;-1.464;2023-06-05T13:24:57;101575.97;;;28.55;33.33
29839;BME280;18669;53.356;-1.464;2023-06-05T13:27:42;101563.72;;;28.95;32.39
29839;BME280;18669;53.356;-1.464;2023-06-05T13:30:27;101554.88;;;30.60;30.83
29839;BME280;18669;53.356;-1.464;2023-06-05T13:33:13;101558.00;;;31.53;28.54
29839;BME280;18669;53.356;-1.464;2023-06-05T13:35:59;101554.13;;;31.56;28.87
29839;BME280;18669;53.356;-1.464;2023-06-05T13:38:45;101550.31;;;31.29;28.78
29839;BME280;18669;53.356;-1.464;2023-06-05T13:41:31;101558.84;;;28.66;31.47
29839;BME280;18669;53.356;-1.464;2023-06-05T13:44:20;101552.41;;;28.90;31.21
29839;BME280;18669;53.356;-1.464;2023-06-05T13:47:05;101561.53;;;28.34;33.29
29839;BME280;18669;53.356;-1.464;2023-06-05T13:49:53;101558.03;;;28.54;32.75
29839;BME280;18669;53.356;-1.464;2023-06-05T13:52:38;101535.25;;;30.56;29.00
29839;BME280;18669;53.356;-1.464;2023-06-05T13:55:23;101546.25;;;32.01;28.48
29839;BME280;18669;53.356;-1.464;2023-06-05T13:58:08;101543.66;;;30.43;29.28
29839;BME280;18669;53.356;-1.464;2023-06-05T14:00:53;101545.31;;;30.95;29.37
29839;BME280;18669;53.356;-1.464;2023-06-05T14:03:40;101545.72;;;32.15;27.81
29839;BME280;18669;53.356;-1.464;2023-06-05T14:06:25;101541.59;;;30.57;29.33
29839;BME280;18669;53.356;-1.464;2023-06-05T14:09:10;101540.75;;;30.86;28.28
29839;BME280;18669;53.356;-1.464;2023-06-05T14:11:55;101535.72;;;31.01;29.39
29839;BME280;18669;53.356;-1.464;2023-06-05T14:14:40;101541.81;;;29.41;31.23
29839;BME280;18669;53.356;-1.464;2023-06-05T14:17:25;101539.16;;;30.63;30.11
29839;BME280;18669;53.356;-1.464;2023-06-05T14:20:11;101536.97;;;31.46;28.65
29839;BME280;18669;53.356;-1.464;2023-06-05T14:22:58;101524.88;;;31.78;27.68
29839;BME280;18669;53.356;-1.464;2023-06-05T14:25:43;101532.94;;;31.50;29.29
29839;BME280;18669;53.356;-1.464;2023-06-05T14:28:28;101523.25;;;30.49;29.55
29839;BME280;18669;53.356;-1.464;2023-06-05T14:31:13;101536.50;;;30.23;30.12
29839;BME280;18669;53.356;-1.464;2023-06-05T14:33:58;101514.28;;;30.58;28.63
29839;BME280;18669;53.356;-1.464;2023-06-05T14:36:43;101526.00;;;31.18;28.85
29839;BME280;18669;53.356;-1.464;2023-06-05T14:39:34;101511.34;;;31.96;28.76
29839;BME280;18669;53.356;-1.464;2023-06-05T14:42:22;101512.00;;;32.54;27.65
29839;BME280;18669;53.356;-1.464;2023-06-05T14:45:07;101514.41;;;33.99;26.00